Time;durP1;ratioP1;P1;durP2;ratioP2;P2;SDS_P1;SDS_P2;PMS_P1;PMS_P2;Temp;Humidity;BMP_temperature;BMP_pressure;BME280_temperature;BME280_humidity;BME280_pressure;Samples;Min_cycle;Max_cycle;Signal;HPM_P1;HPM_P2
2022/06/10 00:01:08;;;;;;;7.03;2.40;;;13.90;99.90;;;;;;5026707;28;20394;-69
2022/06/10 00:03:35;;;;;;;5.82;2.30;;;13.70;99.90;;;;;;5025856;28;20547;-69
2022/06/10 00:06:04;;;;;;;3.67;2.25;;;13.70;99.90;;;;;;5030164;28;20108;-69
2022/06/10 00:08:33;;;;;;;5.60;2.10;;;13.70;99.90;;;;;;5030643;28;20040;-69
2022/06/10 00:11:00;;;;;;;5.65;2.33;;;13.60;99.90;;;;;;5030005;28;20026;-69
2022/06/10 00:13:27;;;;;;;5.88;2.63;;;13.50;99.90;;;;;;5024679;28;20499;-69
2022/06/10 00:15:54;;;;;;;6.72;2.45;;;13.50;99.90;;;;;;5024354;28;20025;-69
2022/06/10 00:18:21;;;;;;;6.47;3.20;;;13.50;99.90;;;;;;5029912;28;20028;-69
2022/06/10 00:20:47;;;;;;;4.53;2.30;;;13.30;99.90;;;;;;5030506;28;20029;-69
2022/06/10 00:23:13;;;;;;;5.25;2.25;;;;;;;;;;5024919;28;20025;-69
2022/06/10 00:25:39;;;;;;;4.82;2.50;;;13.30;99.90;;;;;;5030270;28;20079;-69
2022/06/10 00:28:06;;;;;;;6.82;2.65;;;13.30;99.90;;;;;;5027153;28;20474;-69
2022/06/10 00:30:32;;;;;;;7.93;2.78;;;13.30;99.90;;;;;;5020586;28;20033;-69
2022/06/10 00:32:59;;;;;;;7.20;2.90;;;13.20;99.90;;;;;;5029992;28;20033;-69
2022/06/10 00:35:26;;;;;;;5.50;2.78;;;13.20;99.90;;;;;;5027224;28;20080;-69
2022/06/10 00:37:52;;;;;;;4.75;3.25;;;13.20;99.90;;;;;;5023448;28;20065;-69
2022/06/10 00:40:27;;;;;;;6.45;3.25;;;13.20;99.90;;;;;;5029448;28;20483;-69
2022/06/10 00:42:56;;;;;;;6.38;2.35;;;13.10;99.90;;;;;;5030091;28;20201;-69
2022/06/10 00:45:59;;;;;;;7.10;3.08;;;13.20;99.90;;;;;;5027686;28;20032;-69
2022/06/10 00:48:27;;;;;;;7.20;2.90;;;13.10;99.90;;;;;;5029721;28;20044;-69
2022/06/10 00:50:54;;;;;;;3.92;2.20;;;13.00;99.90;;;;;;5029970;28;20037;-70
2022/06/10 00:53:25;;;;;;;6.93;2.58;;;12.80;99.90;;;;;;5024176;28;20029;-69
2022/06/10 00:55:55;;;;;;;6.00;2.70;;;13.00;99.90;;;;;;5017195;28;20044;-69
2022/06/10 00:58:26;;;;;;;8.45;3.30;;;12.90;99.90;;;;;;5027361;28;20493;-69
2022/06/10 01:00:52;;;;;;;8.98;2.65;;;;;;;;;;5029099;28;20037;-69
2022/06/10 01:03:18;;;;;;;8.98;2.33;;;12.90;99.90;;;;;;5026648;28;20052;-69
2022/06/10 01:05:44;;;;;;;7.68;2.88;;;;;;;;;;5026260;28;20049;-70
2022/06/10 01:08:16;;;;;;;5.55;2.58;;;12.90;99.90;;;;;;5019910;28;20029;-69
2022/06/10 01:11:29;;;;;;;8.82;2.53;;;12.80;99.90;;;;;;5027085;28;20085;-69
2022/06/10 01:14:18;;;;;;;2.85;1.85;;;12.90;99.90;;;;;;5027843;28;20111;-69
2022/06/10 01:17:08;;;;;;;4.18;2.67;;;12.80;99.90;;;;;;5029539;28;20044;-69
2022/06/10 01:19:56;;;;;;;4.68;2.22;;;12.80;99.90;;;;;;5028722;28;20363;-69
2022/06/10 01:22:30;;;;;;;7.82;3.03;;;12.70;99.90;;;;;;5029185;28;20041;-70
2022/06/10 01:25:22;;;;;;;5.30;2.40;;;12.30;99.90;;;;;;5022291;28;20030;-69
2022/06/10 01:28:06;;;;;;;9.65;3.13;;;12.70;99.90;;;;;;5016856;28;20075;-69
2022/06/10 01:30:56;;;;;;;7.93;3.28;;;12.50;99.90;;;;;;5017900;28;20175;-69
2022/06/10 01:33:39;;;;;;;6.40;2.42;;;12.60;99.90;;;;;;5026348;28;20100;-69
2022/06/10 01:36:26;;;;;;;5.10;4.10;;;12.50;99.90;;;;;;5017726;28;20065;-69
2022/06/10 01:38:54;;;;;;;5.75;3.33;;;12.50;99.90;;;;;;5015977;28;20029;-69
2022/06/10 01:41:37;;;;;;;8.55;4.03;;;12.50;99.90;;;;;;5025192;28;20029;-69
2022/06/10 01:44:10;;;;;;;7.88;3.58;;;12.40;99.90;;;;;;5029282;28;20092;-69
2022/06/10 01:46:39;;;;;;;8.02;3.78;;;12.40;99.90;;;;;;5028832;28;20029;-69
2022/06/10 01:49:26;;;;;;;5.47;3.35;;;12.40;99.90;;;;;;5024954;28;20026;-69
2022/06/10 01:52:13;;;;;;;4.60;3.53;;;12.30;99.90;;;;;;5029420;28;20025;-69
2022/06/10 01:54:50;;;;;;;4.35;3.42;;;12.40;99.90;;;;;;5017378;28;20029;-69
2022/06/10 01:57:45;;;;;;;7.80;4.05;;;12.40;99.90;;;;;;5015265;28;20076;-69
2022/06/10 02:00:13;;;;;;;;;;;12.40;99.90;;;;;;5015984;28;20033;-69
2022/06/10 02:02:45;;;;;;;6.60;3.78;;;12.20;99.90;;;;;;5028483;28;19983;-69
2022/06/10 02:05:19;;;;;;;8.52;4.88;;;12.40;99.90;;;;;;5028692;28;20107;-70
2022/06/10 02:08:02;;;;;;;7.38;4.35;;;12.40;99.90;;;;;;5028738;28;20315;-70
2022/06/10 02:10:41;;;;;;;8.45;4.72;;;12.40;99.90;;;;;;5017821;28;20500;-69
2022/06/10 02:13:13;;;;;;;8.52;4.07;;;12.50;99.90;;;;;;5028123;28;20110;-69
2022/06/10 02:15:47;;;;;;;10.43;4.38;;;12.50;99.90;;;;;;5029320;28;20030;-69
2022/06/10 02:18:19;;;;;;;9.35;4.80;;;12.60;99.90;;;;;;5023961;28;20083;-69
2022/06/10 02:20:50;;;;;;;7.60;4.20;;;12.60;99.90;;;;;;5029065;28;20437;-69
2022/06/10 02:23:22;;;;;;;9.23;4.18;;;12.60;99.90;;;;;;5028122;28;20033;-69
2022/06/10 02:25:51;;;;;;;9.75;4.38;;;12.70;99.90;;;;;;5029149;28;20029;-69
2022/06/10 02:28:28;;;;;;;8.27;4.45;;;12.80;99.90;;;;;;5025004;28;20029;-69
2022/06/10 02:30:54;;;;;;;6.40;3.55;;;;;;;;;;5023609;28;20037;-69
2022/06/10 02:33:20;;;;;;;8.95;4.35;;;12.90;99.90;;;;;;5032200;28;20025;-69
2022/06/10 02:35:54;;;;;;;7.95;3.97;;;13.10;99.90;;;;;;5033002;28;20052;-69
2022/06/10 02:38:44;;;;;;;6.38;4.32;;;13.10;99.90;;;;;;5030601;28;20486;-69
2022/06/10 02:41:28;;;;;;;7.63;3.33;;;13.30;99.90;;;;;;5028485;28;20430;-69
2022/06/10 02:44:03;;;;;;;;;;;13.40;99.90;;;;;;5031370;28;20026;-69
2022/06/10 02:46:38;;;;;;;8.90;3.58;;;13.60;99.90;;;;;;5032125;28;19905;-69
2022/06/10 02:49:18;;;;;;;9.32;3.47;;;13.30;99.90;;;;;;5018849;28;20074;-70
2022/06/10 02:51:47;;;;;;;8.77;4.75;;;13.50;99.90;;;;;;5031670;28;20037;-69
2022/06/10 02:54:28;;;;;;;7.22;3.25;;;13.80;99.90;;;;;;5027871;28;20493;-69
2022/06/10 02:56:53;;;;;;;8.30;4.05;;;13.90;99.90;;;;;;5030024;28;20041;-69
2022/06/10 03:02:04;;;;;;;9.45;3.00;;;13.60;99.90;;;;;;5027508;28;20063;-69
2022/06/10 03:04:48;;;;;;;7.45;3.38;;;14.20;99.90;;;;;;5031408;28;20557;-69
2022/06/10 03:07:26;;;;;;;;;;;13.90;99.90;;;;;;5032434;28;20049;-70
2022/06/10 03:10:05;;;;;;;6.60;3.65;;;13.80;99.90;;;;;;5031339;28;19963;-69
2022/06/10 03:12:55;;;;;;;15.32;3.00;;;14.00;99.90;;;;;;5032287;28;20111;-69
2022/06/10 03:15:27;;;;;;;8.70;4.80;;;14.10;99.90;;;;;;5031424;28;20033;-69
2022/06/10 03:17:59;;;;;;;5.57;2.95;;;13.60;99.90;;;;;;5028785;28;20025;-69
2022/06/10 03:20:52;;;;;;;7.60;3.35;;;14.20;99.90;;;;;;5024540;28;20053;-69
2022/06/10 03:23:39;;;;;;;6.32;2.97;;;14.40;99.90;;;;;;5017699;28;20238;-69
2022/06/10 03:26:13;;;;;;;6.30;3.13;;;14.10;99.90;;;;;;5031727;28;20021;-69
2022/06/10 03:28:44;;;;;;;11.07;2.60;;;14.50;99.90;;;;;;5030841;28;20135;-69
2022/06/10 03:31:30;;;;;;;7.55;3.20;;;14.40;99.90;;;;;;5030410;28;20022;-69
2022/06/10 03:34:10;;;;;;;7.68;2.88;;;14.40;99.90;;;;;;5020315;28;20037;-69
2022/06/10 03:36:36;;;;;;;11.52;3.28;;;14.40;99.90;;;;;;5012598;28;20475;-69
2022/06/10 03:39:06;;;;;;;9.20;3.42;;;14.40;99.90;;;;;;5022436;28;20025;-69
2022/06/10 03:41:35;;;;;;;7.13;2.67;;;14.50;99.90;;;;;;5031367;28;20072;-69
2022/06/10 03:44:06;;;;;;;8.63;3.20;;;14.50;99.90;;;;;;5030446;28;20026;-69
2022/06/10 03:46:33;;;;;;;8.85;2.92;;;14.50;99.90;;;;;;5031709;28;20539;-69
2022/06/10 03:49:06;;;;;;;9.93;3.08;;;14.60;99.90;;;;;;5021833;28;20032;-69
2022/06/10 03:51:32;;;;;;;10.77;3.33;;;14.60;99.90;;;;;;5031733;28;20025;-69
2022/06/10 03:53:58;;;;;;;14.32;3.67;;;14.60;99.90;;;;;;5030128;28;20048;-69
2022/06/10 03:56:24;;;;;;;5.35;2.67;;;14.50;99.90;;;;;;5015727;28;20030;-69
2022/06/10 03:58:50;;;;;;;5.55;2.53;;;14.60;99.90;;;;;;5027533;28;20026;-69
2022/06/10 04:01:16;;;;;;;4.90;2.40;;;14.70;99.90;;;;;;5030283;28;20103;-69
2022/06/10 04:03:42;;;;;;;9.07;3.17;;;15.50;99.90;;;;;;5020853;28;20112;-69
2022/06/10 04:06:08;;;;;;;9.82;2.88;;;14.80;99.90;;;;;;5030271;28;20294;-69
2022/06/10 04:08:34;;;;;;;7.40;2.50;;;14.70;99.90;;;;;;5030798;28;20032;-69
2022/06/10 04:10:59;;;;;;;6.53;2.30;;;14.80;99.90;;;;;;5017038;28;20522;-69
2022/06/10 04:13:25;;;;;;;6.25;2.65;;;15.50;99.90;;;;;;5030159;28;20441;-69
2022/06/10 04:15:50;;;;;;;10.55;3.22;;;14.70;99.90;;;;;;5031263;28;20170;-69
2022/06/10 04:18:16;;;;;;;6.50;2.83;;;14.90;99.90;;;;;;5029063;28;20108;-70
2022/06/10 04:20:42;;;;;;;8.27;3.60;;;14.50;99.90;;;;;;5030128;28;20471;-69
2022/06/10 04:23:08;;;;;;;7.03;2.40;;;14.70;99.90;;;;;;5029906;28;20045;-69
2022/06/10 04:25:36;;;;;;;9.82;3.75;;;14.70;99.90;;;;;;5031072;28;20163;-69
2022/06/10 04:28:02;;;;;;;3.58;2.50;;;14.70;99.90;;;;;;5026513;28;20022;-69
2022/06/10 04:30:32;;;;;;;5.88;2.67;;;14.80;99.90;;;;;;5027690;28;20491;-69
2022/06/10 04:32:59;;;;;;;8.73;2.75;;;14.80;99.90;;;;;;5024941;28;20450;-69
2022/06/10 04:35:25;;;;;;;4.75;2.05;;;14.80;99.90;;;;;;5025836;28;20029;-69
2022/06/10 04:37:52;;;;;;;7.93;2.65;;;15.00;99.90;;;;;;5030343;28;20442;-69
2022/06/10 04:40:22;;;;;;;5.78;2.20;;;14.60;99.90;;;;;;5029736;28;20029;-69
2022/06/10 04:42:49;;;;;;;6.80;3.30;;;14.80;99.90;;;;;;5028012;28;20042;-69
2022/06/10 04:45:17;;;;;;;6.57;2.88;;;14.80;99.90;;;;;;5027810;28;20115;-69
2022/06/10 04:47:42;;;;;;;11.68;3.60;;;14.80;99.90;;;;;;5021128;28;20049;-69
2022/06/10 04:50:10;;;;;;;8.25;3.13;;;14.60;99.90;;;;;;5029401;28;20029;-69
2022/06/10 04:52:37;;;;;;;6.10;3.13;;;14.70;99.90;;;;;;5019041;28;20061;-69
2022/06/10 04:55:04;;;;;;;9.57;4.10;;;14.70;99.90;;;;;;5024432;28;20041;-69
2022/06/10 04:57:29;;;;;;;14.05;3.40;;;14.70;99.90;;;;;;5028149;28;20494;-69
2022/06/10 04:59:55;;;;;;;8.02;3.88;;;15.00;99.90;;;;;;5030388;28;20060;-69
2022/06/10 05:02:21;;;;;;;8.32;2.95;;;14.70;99.90;;;;;;5026441;28;20048;-69
2022/06/10 05:04:47;;;;;;;4.97;2.88;;;14.70;99.90;;;;;;5016989;28;20046;-69
2022/06/10 05:07:13;;;;;;;10.70;3.22;;;14.70;99.90;;;;;;5029066;28;20033;-69
2022/06/10 05:09:38;;;;;;;6.68;3.70;;;14.80;99.90;;;;;;5030113;28;20485;-69
2022/06/10 05:12:04;;;;;;;7.00;3.50;;;14.80;99.90;;;;;;5028494;28;20026;-69
2022/06/10 05:14:30;;;;;;;7.97;2.85;;;14.90;99.90;;;;;;5029139;28;20435;-69
2022/06/10 05:16:56;;;;;;;8.00;3.95;;;15.00;99.90;;;;;;5030139;28;20036;-69
2022/06/10 05:19:23;;;;;;;7.63;3.33;;;15.10;99.90;;;;;;5018387;28;20463;-69
2022/06/10 05:21:49;;;;;;;7.75;4.00;;;15.20;99.90;;;;;;5021413;28;20409;-69
2022/06/10 05:24:14;;;;;;;10.82;3.67;;;15.30;99.90;;;;;;5029043;28;20052;-69
2022/06/10 05:26:40;;;;;;;9.88;4.63;;;15.30;99.90;;;;;;5029128;28;20121;-69
2022/06/10 05:29:06;;;;;;;5.28;3.70;;;15.40;99.90;;;;;;5029454;28;20100;-69
2022/06/10 05:31:31;;;;;;;5.65;3.72;;;15.20;99.90;;;;;;5029097;28;20108;-70
2022/06/10 05:36:41;;;;;;;14.23;3.55;;;16.40;99.90;;;;;;5028687;28;20513;-69
2022/06/10 05:39:07;;;;;;;6.15;3.63;;;15.60;99.90;;;;;;5017985;28;20026;-69
2022/06/10 05:44:16;;;;;;;;;;;15.80;99.90;;;;;;5029081;28;20068;-70
2022/06/10 05:46:43;;;;;;;11.90;3.47;;;15.90;99.90;;;;;;5028896;28;19948;-69
2022/06/10 05:49:09;;;;;;;12.20;3.55;;;15.90;99.90;;;;;;5029183;28;20025;-70
2022/06/10 05:51:35;;;;;;;6.30;3.25;;;15.90;99.90;;;;;;5029187;28;20437;-69
2022/06/10 05:54:00;;;;;;;9.15;2.72;;;16.00;99.90;;;;;;5028742;28;20100;-69
2022/06/10 05:56:26;;;;;;;7.03;2.72;;;16.00;99.90;;;;;;5027420;28;20156;-69
2022/06/10 05:58:52;;;;;;;6.18;2.10;;;16.20;99.90;;;;;;5028737;28;20029;-69
2022/06/10 06:01:17;;;;;;;6.57;2.60;;;16.70;99.90;;;;;;5028913;28;20116;-69
2022/06/10 06:03:43;;;;;;;6.47;3.25;;;17.40;99.90;;;;;;5027677;28;20118;-69
2022/06/10 06:06:10;;;;;;;4.03;2.42;;;16.40;99.90;;;;;;5028863;28;20057;-67
2022/06/10 06:08:35;;;;;;;4.63;2.63;;;16.50;99.90;;;;;;5027900;28;20112;-67
2022/06/10 06:11:01;;;;;;;6.07;2.58;;;16.50;99.90;;;;;;5028403;28;20109;-67
2022/06/10 06:13:27;;;;;;;7.15;2.55;;;16.60;99.90;;;;;;5029152;28;20033;-67
2022/06/10 06:15:53;;;;;;;7.57;3.20;;;16.70;99.90;;;;;;5028294;28;20026;-67
2022/06/10 06:18:18;;;;;;;9.27;2.50;;;16.80;99.90;;;;;;5028050;28;20512;-67
2022/06/10 06:20:44;;;;;;;8.00;3.20;;;17.00;99.90;;;;;;5023484;28;20089;-67
2022/06/10 06:23:09;;;;;;;8.23;2.90;;;17.00;99.90;;;;;;5027028;28;20363;-67
2022/06/10 06:25:35;;;;;;;6.65;2.63;;;17.00;99.90;;;;;;5029147;28;20086;-67
2022/06/10 06:28:00;;;;;;;9.63;3.30;;;17.10;99.90;;;;;;5027956;28;20029;-67
2022/06/10 06:30:32;;;;;;;8.25;2.92;;;17.20;99.90;;;;;;5019444;28;20067;-67
2022/06/10 06:33:04;;;;;;;6.90;2.85;;;17.30;99.90;;;;;;5017143;28;20032;-67
2022/06/10 06:35:32;;;;;;;8.00;2.88;;;17.30;99.90;;;;;;5015745;28;20026;-67
2022/06/10 06:37:57;;;;;;;7.88;2.80;;;17.30;99.90;;;;;;5026091;28;20096;-67
2022/06/10 06:40:23;;;;;;;9.02;3.50;;;18.00;99.90;;;;;;5026389;28;20120;-67
2022/06/10 06:42:49;;;;;;;10.82;3.15;;;17.40;99.90;;;;;;5027960;28;20065;-67
2022/06/10 06:45:17;;;;;;;8.40;2.50;;;17.30;99.90;;;;;;5018479;28;20697;-70
2022/06/10 06:47:42;;;;;;;12.05;3.22;;;17.70;99.90;;;;;;5027839;28;20117;-70
2022/06/10 06:50:10;;;;;;;7.15;3.10;;;17.40;99.90;;;;;;5027147;28;20148;-70
2022/06/10 06:52:36;;;;;;;9.13;2.83;;;17.50;99.90;;;;;;5023531;28;20091;-70
2022/06/10 06:55:03;;;;;;;7.80;2.78;;;18.70;99.90;;;;;;5027541;28;20018;-70
2022/06/10 06:57:29;;;;;;;6.93;3.05;;;17.60;99.90;;;;;;5018483;28;20028;-70
2022/06/10 07:00:04;;;;;;;7.20;3.03;;;17.60;99.90;;;;;;5024147;28;20022;-70
2022/06/10 07:02:29;;;;;;;9.98;3.22;;;17.70;99.90;;;;;;5028456;28;20378;-70
2022/06/10 07:04:55;;;;;;;7.50;3.35;;;17.60;99.90;;;;;;5023345;28;20045;-70
2022/06/10 07:07:20;;;;;;;7.32;3.10;;;17.70;99.90;;;;;;5027642;28;20028;-72
2022/06/10 07:09:46;;;;;;;5.05;2.50;;;17.70;99.90;;;;;;5028564;28;20034;-72
2022/06/10 07:12:11;;;;;;;9.23;3.03;;;18.00;99.90;;;;;;5027926;28;20478;-73
2022/06/10 07:14:38;;;;;;;7.32;2.17;;;17.70;99.90;;;;;;5029262;28;20057;-73
2022/06/10 07:17:04;;;;;;;7.90;3.25;;;18.60;99.90;;;;;;5030164;28;20386;-72
2022/06/10 07:19:30;;;;;;;8.32;2.17;;;17.90;99.90;;;;;;5032094;28;20026;-74
2022/06/10 07:21:55;;;;;;;8.70;2.20;;;18.30;99.90;;;;;;5031346;28;20061;-72
2022/06/10 07:24:21;;;;;;;8.20;3.13;;;17.90;99.90;;;;;;5031614;28;20029;-73
2022/06/10 07:26:47;;;;;;;6.97;2.08;;;18.70;99.90;;;;;;5031994;28;20029;-71
2022/06/10 07:29:13;;;;;;;4.35;2.05;;;18.00;99.90;;;;;;5031330;28;20051;-71
2022/06/10 07:31:41;;;;;;;4.68;2.38;;;18.40;99.90;;;;;;5031858;28;20142;-71
2022/06/10 07:34:08;;;;;;;4.75;1.90;;;18.20;99.90;;;;;;5031465;28;20032;-71
2022/06/10 07:36:34;;;;;;;5.97;2.10;;;18.30;99.90;;;;;;5031387;28;20025;-71
2022/06/10 07:39:00;;;;;;;7.68;2.33;;;18.30;99.90;;;;;;5023138;28;20174;-71
2022/06/10 07:44:09;;;;;;;5.45;1.77;;;18.40;99.90;;;;;;5030955;28;20052;-71
2022/06/10 07:46:35;;;;;;;3.47;1.77;;;18.60;99.90;;;;;;5031261;28;20470;-71
2022/06/10 07:49:01;;;;;;;6.03;1.80;;;19.30;99.90;;;;;;5031130;28;20344;-70
2022/06/10 07:51:26;;;;;;;6.13;1.92;;;18.80;99.90;;;;;;5030839;28;20327;-71
2022/06/10 07:53:52;;;;;;;4.22;1.60;;;18.90;99.90;;;;;;5031517;28;20073;-70
2022/06/10 07:56:22;;;;;;;3.65;1.30;;;19.10;99.90;;;;;;5030847;28;20315;-71
2022/06/10 07:58:49;;;;;;;4.47;1.67;;;19.20;99.90;;;;;;5031343;28;20477;-70
2022/06/10 08:01:15;;;;;;;3.15;1.13;;;19.60;99.90;;;;;;5030651;28;20179;-70
2022/06/10 08:03:41;;;;;;;7.28;1.48;;;20.10;99.90;;;;;;5030985;28;20530;-70
2022/06/10 08:06:06;;;;;;;5.88;1.70;;;19.90;99.90;;;;;;5027831;28;20274;-71
2022/06/10 08:08:32;;;;;;;4.55;1.23;;;20.20;99.90;;;;;;5030994;28;20108;-70
2022/06/10 08:10:58;;;;;;;7.13;1.50;;;20.10;99.90;;;;;;5020959;28;20021;-70
2022/06/10 08:13:25;;;;;;;3.85;1.00;;;20.10;99.90;;;;;;5025119;28;20041;-71
2022/06/10 08:15:51;;;;;;;5.45;0.80;;;21.60;99.90;;;;;;5031071;28;20091;-72
2022/06/10 08:18:19;;;;;;;3.53;1.05;;;20.20;99.90;;;;;;5030502;28;20470;-73
2022/06/10 08:23:31;;;;;;;5.65;1.23;;;20.50;99.90;;;;;;5031151;28;20469;-72
2022/06/10 08:25:58;;;;;;;5.13;1.55;;;20.70;99.90;;;;;;5030832;28;20048;-71
2022/06/10 08:28:25;;;;;;;6.78;2.00;;;20.60;99.90;;;;;;5030533;28;20025;-73
2022/06/10 08:30:51;;;;;;;4.82;1.30;;;22.40;99.90;;;;;;5029696;28;20695;-72
2022/06/10 08:33:17;;;;;;;5.70;1.40;;;20.90;99.90;;;;;;5028461;28;20100;-72
2022/06/10 08:35:42;;;;;;;1.52;0.93;;;21.40;99.90;;;;;;5027869;28;20045;-72
2022/06/10 08:38:11;;;;;;;4.75;1.15;;;21.20;99.70;;;;;;5029586;28;20029;-72
2022/06/10 08:40:44;;;;;;;5.07;1.45;;;21.30;99.80;;;;;;5030328;28;20072;-71
2022/06/10 08:43:32;;;;;;;4.55;1.30;;;21.30;99.70;;;;;;5029390;28;20192;-72
2022/06/10 08:46:26;;;;;;;3.60;1.20;;;21.30;98.80;;;;;;5025785;28;20025;-72
2022/06/10 08:49:10;;;;;;;5.78;1.17;;;21.40;98.60;;;;;;5029885;28;20344;-72
2022/06/10 08:51:51;;;;;;;6.00;1.35;;;21.60;99.40;;;;;;5030212;28;20025;-72
2022/06/10 08:54:22;;;;;;;7.07;1.42;;;21.30;98.40;;;;;;5029960;28;20335;-71
2022/06/10 08:56:51;;;;;;;5.53;1.77;;;22.30;99.10;;;;;;5028998;28;20371;-71
2022/06/10 08:59:29;;;;;;;4.30;1.40;;;21.10;99.10;;;;;;5020508;28;20390;-72
2022/06/10 09:02:12;;;;;;;5.20;1.13;;;21.20;99.20;;;;;;5028461;28;20116;-72
2022/06/10 09:04:38;;;;;;;4.67;1.10;;;21.30;99.00;;;;;;5029803;28;20077;-72
2022/06/10 09:07:11;;;;;;;3.28;1.17;;;21.20;98.60;;;;;;5029384;28;20048;-72
2022/06/10 09:09:40;;;;;;;5.15;1.35;;;21.30;98.90;;;;;;5029822;28;20092;-72
2022/06/10 09:12:21;;;;;;;4.90;1.23;;;21.40;98.60;;;;;;5029490;28;20121;-69
2022/06/10 09:14:55;;;;;;;7.88;1.70;;;21.50;98.40;;;;;;5028115;28;20021;-69
2022/06/10 09:17:31;;;;;;;9.82;1.88;;;21.80;97.20;;;;;;5028810;28;20042;-69
2022/06/10 09:20:11;;;;;;;5.50;1.92;;;22.10;97.60;;;;;;5029656;28;20105;-70
2022/06/10 09:22:53;;;;;;;4.68;1.10;;;22.20;96.50;;;;;;5029730;28;20033;-70
2022/06/10 09:25:26;;;;;;;3.65;1.35;;;22.20;95.90;;;;;;5028925;28;20132;-69
2022/06/10 09:27:57;;;;;;;4.95;1.58;;;22.30;96.50;;;;;;5026602;28;20032;-70
2022/06/10 09:30:33;;;;;;;8.70;1.40;;;22.50;96.50;;;;;;5029277;28;20021;-69
2022/06/10 09:33:27;;;;;;;6.05;1.38;;;22.30;96.40;;;;;;5029042;28;20184;-69
2022/06/10 09:36:33;;;;;;;4.65;1.50;;;22.30;95.50;;;;;;5029709;28;20117;-70
2022/06/10 09:39:06;;;;;;;5.50;1.05;;;22.40;95.10;;;;;;5024286;28;20025;-70
2022/06/10 09:42:08;;;;;;;5.38;1.45;;;22.40;95.10;;;;;;5014437;28;20457;-69
2022/06/10 09:44:52;;;;;;;5.65;1.10;;;22.40;95.20;;;;;;5025571;28;20390;-70
2022/06/10 09:47:44;;;;;;;6.68;1.27;;;22.50;95.90;;;;;;5028533;28;20821;-70
2022/06/10 09:50:13;;;;;;;6.25;1.25;;;22.50;95.90;;;;;;5028706;28;20103;-69
2022/06/10 09:52:44;;;;;;;6.68;1.67;;;22.70;95.90;;;;;;5028805;28;20032;-70
2022/06/10 09:55:34;;;;;;;4.63;1.20;;;22.20;94.70;;;;;;5028456;28;20299;-70
2022/06/10 09:58:18;;;;;;;7.13;1.20;;;22.20;95.40;;;;;;5027876;28;20485;-70
2022/06/10 10:00:52;;;;;;;3.83;1.30;;;22.10;96.20;;;;;;5027219;28;20030;-69
2022/06/10 10:03:49;;;;;;;4.75;1.05;;;22.20;95.30;;;;;;5015574;28;20044;-69
2022/06/10 10:06:37;;;;;;;7.00;2.15;;;22.20;95.40;;;;;;5027591;28;20044;-70
2022/06/10 10:09:16;;;;;;;5.10;1.58;;;22.20;95.10;;;;;;5025193;28;20041;-69
2022/06/10 10:12:05;;;;;;;9.90;2.08;;;22.30;95.00;;;;;;5028973;28;20025;-69
2022/06/10 10:14:50;;;;;;;4.45;1.38;;;22.30;94.40;;;;;;5028315;28;20487;-70
2022/06/10 10:17:29;;;;;;;5.65;1.45;;;22.60;94.70;;;;;;5028357;28;20025;-70
2022/06/10 10:20:22;;;;;;;3.33;1.23;;;22.90;93.80;;;;;;5029038;28;20025;-70
2022/06/10 10:23:09;;;;;;;5.85;1.85;;;23.20;94.70;;;;;;5028914;28;20478;-70
2022/06/10 10:25:38;;;;;;;6.75;1.60;;;23.70;93.40;;;;;;5028856;28;20370;-70
2022/06/10 10:28:24;;;;;;;5.93;1.45;;;24.00;93.40;;;;;;5028183;28;20030;-70
2022/06/10 10:31:09;;;;;;;7.78;1.75;;;24.00;93.20;;;;;;5028354;28;20022;-70
2022/06/10 10:33:35;;;;;;;5.35;1.98;;;25.20;92.20;;;;;;5028097;28;20037;-70
2022/06/10 10:36:05;;;;;;;5.00;1.77;;;24.20;92.20;;;;;;5028406;28;20705;-70
2022/06/10 10:38:41;;;;;;;8.05;1.80;;;24.10;92.30;;;;;;5028332;28;20029;-70
2022/06/10 10:41:26;;;;;;;5.72;1.98;;;24.10;91.80;;;;;;5027812;28;20020;-70
2022/06/10 10:43:55;;;;;;;8.65;1.45;;;24.20;92.50;;;;;;5028264;28;20017;-70
2022/06/10 10:46:29;;;;;;;5.75;1.63;;;24.30;92.10;;;;;;5012188;28;20029;-70
2022/06/10 10:48:59;;;;;;;5.07;1.30;;;24.40;91.20;;;;;;5024681;28;20034;-70
2022/06/10 10:51:33;;;;;;;6.70;1.83;;;24.50;91.70;;;;;;5031995;28;20064;-70
2022/06/10 10:54:12;;;;;;;6.38;1.98;;;24.50;91.70;;;;;;5026806;28;20219;-71
2022/06/10 10:56:40;;;;;;;5.53;1.73;;;24.40;91.90;;;;;;5031641;28;20075;-70
2022/06/10 10:59:23;;;;;;;5.75;1.48;;;24.30;91.70;;;;;;5021133;28;20113;-70
2022/06/10 11:01:51;;;;;;;9.23;2.17;;;24.30;91.80;;;;;;5029294;28;20041;-70
2022/06/10 11:04:38;;;;;;;5.28;1.95;;;24.30;91.50;;;;;;5031367;28;20037;-70
2022/06/10 11:07:04;;;;;;;8.45;2.83;;;24.10;91.80;;;;;;5030997;28;20036;-70
2022/06/10 11:09:31;;;;;;;6.80;1.92;;;24.00;91.30;;;;;;5032135;28;20025;-70
2022/06/10 11:12:01;;;;;;;6.10;1.88;;;23.90;91.70;;;;;;5025713;28;20033;-70
2022/06/10 11:14:36;;;;;;;4.57;1.40;;;23.80;91.70;;;;;;5029775;28;20022;-70
2022/06/10 11:17:06;;;;;;;9.82;2.60;;;23.80;91.30;;;;;;5022597;28;20475;-69
2022/06/10 11:19:32;;;;;;;5.22;2.15;;;23.60;91.90;;;;;;5027760;28;20266;-70
2022/06/10 11:22:03;;;;;;;7.80;2.22;;;23.60;92.00;;;;;;5031766;28;20526;-70
2022/06/10 11:24:32;;;;;;;8.85;1.88;;;23.70;92.40;;;;;;5029611;28;20025;-70
2022/06/10 11:27:00;;;;;;;9.30;2.40;;;24.00;92.30;;;;;;5030663;28;20057;-70
2022/06/10 11:29:28;;;;;;;6.45;1.70;;;23.70;92.20;;;;;;5031683;28;20017;-70
2022/06/10 11:31:59;;;;;;;4.65;1.77;;;23.80;92.40;;;;;;5031583;28;20037;-70
2022/06/10 11:34:38;;;;;;;6.90;2.17;;;23.50;92.50;;;;;;5030656;28;20056;-70
2022/06/10 11:37:30;;;;;;;6.72;1.75;;;23.40;92.80;;;;;;5026715;28;20065;-70
2022/06/10 11:40:23;;;;;;;5.85;1.67;;;23.60;92.10;;;;;;5031502;28;20428;-70
2022/06/10 11:42:54;;;;;;;5.83;2.13;;;23.60;91.90;;;;;;5025407;28;20033;-70
2022/06/10 11:45:24;;;;;;;6.13;2.15;;;23.80;91.70;;;;;;5031104;28;20256;-70
2022/06/10 11:48:31;;;;;;;6.63;2.38;;;23.90;92.20;;;;;;5031289;28;20034;-70
2022/06/10 11:51:21;;;;;;;6.78;1.73;;;24.10;92.20;;;;;;5030775;28;20124;-70
2022/06/10 11:54:18;;;;;;;8.30;2.00;;;24.30;91.20;;;;;;5031438;28;20025;-70
2022/06/10 12:00:00;;;;;;;9.82;2.42;;;24.20;91.60;;;;;;5031394;28;20069;-70
2022/06/10 12:02:46;;;;;;;4.80;2.13;;;24.20;91.20;;;;;;5030953;28;20025;-70
2022/06/10 12:05:47;;;;;;;6.50;1.63;;;24.00;92.20;;;;;;5030662;28;20068;-71
2022/06/10 12:08:42;;;;;;;6.65;1.92;;;24.10;91.50;;;;;;5030768;28;20443;-70
2022/06/10 12:11:33;;;;;;;4.90;2.30;;;24.30;91.50;;;;;;5030029;28;20053;-70
2022/06/10 12:14:37;;;;;;;6.93;2.38;;;24.30;91.10;;;;;;5030429;28;20017;-70
2022/06/10 12:17:05;;;;;;;;;;;24.60;91.80;;;;;;5030737;28;20041;-70
2022/06/10 12:19:46;;;;;;;5.78;2.33;;;24.90;91.60;;;;;;5025165;28;19912;-70
2022/06/10 12:22:13;;;;;;;7.30;2.00;;;25.00;91.00;;;;;;5025310;28;20116;-70
2022/06/10 12:24:40;;;;;;;6.53;2.40;;;24.80;90.70;;;;;;5029072;28;20025;-70
2022/06/10 12:27:13;;;;;;;9.48;3.22;;;24.60;90.70;;;;;;5023785;28;20091;-69
2022/06/10 12:29:52;;;;;;;7.53;2.42;;;24.40;91.10;;;;;;5024806;28;20421;-70
2022/06/10 12:32:39;;;;;;;7.07;2.20;;;25.90;91.80;;;;;;5026396;28;20128;-70
2022/06/10 12:35:18;;;;;;;4.38;1.83;;;24.60;90.20;;;;;;5029494;28;20021;-70
2022/06/10 12:37:53;;;;;;;7.32;2.30;;;24.90;90.10;;;;;;5027737;28;20486;-69
2022/06/10 12:40:27;;;;;;;4.88;1.80;;;25.20;90.20;;;;;;5021640;28;20092;-70
2022/06/10 12:43:06;;;;;;;6.90;3.25;;;25.30;91.00;;;;;;5021293;28;20118;-70
2022/06/10 12:45:48;;;;;;;10.68;2.80;;;26.10;90.80;;;;;;5025987;28;20418;-70
2022/06/10 12:48:15;;;;;;;8.25;2.58;;;25.60;89.50;;;;;;5028412;28;20017;-70
2022/06/10 12:50:52;;;;;;;8.80;2.63;;;25.50;90.00;;;;;;5027426;28;20109;-71
2022/06/10 12:53:50;;;;;;;5.63;1.80;;;25.60;88.70;;;;;;5029738;28;20412;-70
2022/06/10 12:56:21;;;;;;;6.07;2.75;;;25.40;89.30;;;;;;5043672;28;20382;-70
2022/06/10 12:58:50;;;;;;;7.95;2.45;;;25.40;90.50;;;;;;5030503;28;20072;-71
2022/06/10 13:01:18;;;;;;;4.80;2.22;;;24.80;90.50;;;;;;5029324;28;20026;-71
2022/06/10 13:03:46;;;;;;;4.82;2.10;;;25.80;91.10;;;;;;5030233;28;20052;-70
2022/06/10 13:06:33;;;;;;;5.55;2.20;;;24.70;90.80;;;;;;5030089;28;20029;-71
2022/06/10 13:09:12;;;;;;;4.03;2.13;;;24.50;90.30;;;;;;5029649;28;20092;-70
2022/06/10 13:11:59;;;;;;;5.65;2.85;;;24.30;91.20;;;;;;5028467;28;20053;-71
2022/06/10 13:14:30;;;;;;;5.93;2.28;;;24.20;90.40;;;;;;5019058;28;20053;-71
2022/06/10 13:16:58;;;;;;;6.55;3.15;;;24.30;91.40;;;;;;5029407;28;20028;-71
2022/06/10 13:19:30;;;;;;;7.32;2.85;;;24.50;91.10;;;;;;5030054;28;20021;-71
2022/06/10 13:22:19;;;;;;;6.57;2.92;;;24.60;89.30;;;;;;5025476;28;20038;-71
2022/06/10 13:24:54;;;;;;;7.88;3.30;;;24.50;89.40;;;;;;5015861;28;20034;-71
2022/06/10 13:27:21;;;;;;;6.50;3.20;;;25.90;91.30;;;;;;5029650;28;20124;-72
2022/06/10 13:29:57;;;;;;;9.25;2.63;;;24.50;90.40;;;;;;5026683;28;20025;-70
2022/06/10 13:32:23;;;;;;;7.97;4.15;;;24.70;89.90;;;;;;5028757;28;20037;-70
2022/06/10 13:35:02;;;;;;;3.92;3.20;;;24.90;90.10;;;;;;5042759;28;20104;-71